Time;durP1;ratioP1;P1;durP2;ratioP2;P2;SDS_P1;SDS_P2;PMS_P1;PMS_P2;Temp;Humidity;BMP_temperature;BMP_pressure;BME280_temperature;BME280_humidity;BME280_pressure;Samples;Min_cycle;Max_cycle;Signal;HPM_P1;HPM_P2
2023/08/25 00:02:15;;;;;;;6.25;5.25;;;19.80;99.90;;;;;;4991949;28;20183;-81
2023/08/25 00:04:41;;;;;;;5.95;5.40;;;19.80;99.90;;;;;;4974061;28;20175;-81
2023/08/25 00:07:07;;;;;;;5.55;5.05;;;19.80;99.90;;;;;;4974601;28;20207;-81
2023/08/25 00:09:32;;;;;;;5.55;5.03;;;19.80;99.90;;;;;;4991506;28;20176;-80
2023/08/25 00:11:58;;;;;;;5.80;5.13;;;19.80;99.90;;;;;;4973784;28;20182;-80
2023/08/25 00:14:24;;;;;;;6.68;4.97;;;19.70;99.90;;;;;;4974115;28;20661;-81
2023/08/25 00:16:49;;;;;;;5.97;5.38;;;19.80;99.90;;;;;;4991722;28;20205;-81
2023/08/25 00:19:17;;;;;;;7.93;5.30;;;19.80;99.90;;;;;;4974758;28;20207;-81
2023/08/25 00:21:42;;;;;;;6.78;5.20;;;19.70;99.90;;;;;;4974159;28;20175;-81
2023/08/25 00:24:08;;;;;;;5.43;4.93;;;19.70;99.90;;;;;;4991871;28;20180;-81
2023/08/25 00:26:34;;;;;;;5.90;5.03;;;19.70;99.90;;;;;;4974441;28;20570;-81
2023/08/25 00:28:59;;;;;;;5.45;4.90;;;19.70;99.90;;;;;;4974266;28;20555;-81
2023/08/25 00:31:25;;;;;;;5.50;4.75;;;19.80;99.90;;;;;;4990968;28;20226;-81
2023/08/25 00:33:51;;;;;;;5.30;4.80;;;19.70;99.90;;;;;;4974241;28;20304;-80
2023/08/25 00:36:16;;;;;;;5.82;5.32;;;19.80;99.90;;;;;;4974000;28;20227;-81
2023/08/25 00:38:42;;;;;;;5.25;4.85;;;19.80;99.90;;;;;;4974158;28;20179;-81
2023/08/25 00:41:08;;;;;;;6.72;5.22;;;19.90;99.90;;;;;;4991010;28;20277;-81
2023/08/25 00:43:34;;;;;;;6.50;5.45;;;19.90;99.90;;;;;;4974628;28;20187;-81
2023/08/25 00:46:01;;;;;;;6.00;4.90;;;19.90;99.90;;;;;;4974146;28;20214;-81
2023/08/25 00:48:27;;;;;;;5.97;5.43;;;20.00;99.90;;;;;;4991722;28;20255;-81
2023/08/25 00:50:54;;;;;;;6.38;5.75;;;20.00;99.90;;;;;;4991123;28;20180;-81
2023/08/25 00:53:21;;;;;;;6.40;5.70;;;20.00;99.90;;;;;;4973913;28;20184;-81
2023/08/25 00:55:47;;;;;;;6.10;5.45;;;20.00;99.90;;;;;;4991482;28;20283;-81
2023/08/25 00:58:14;;;;;;;7.78;6.22;;;20.00;99.90;;;;;;4973815;28;20212;-81
2023/08/25 01:00:41;;;;;;;6.85;5.85;;;20.00;99.90;;;;;;4991019;28;20210;-81
2023/08/25 01:03:07;;;;;;;7.65;5.80;;;20.00;99.90;;;;;;4973652;28;20270;-81
2023/08/25 01:05:33;;;;;;;7.93;6.75;;;20.00;99.90;;;;;;4973340;28;20709;-81
2023/08/25 01:07:59;;;;;;;7.40;6.70;;;19.90;99.90;;;;;;4991347;28;20168;-81
2023/08/25 01:10:35;;;;;;;8.07;7.28;;;19.90;99.90;;;;;;4972817;28;20182;-81
2023/08/25 01:13:16;;;;;;;8.80;7.40;;;19.80;99.90;;;;;;4973340;28;20666;-81
2023/08/25 01:15:43;;;;;;;9.32;7.85;;;19.80;99.90;;;;;;4991825;28;20586;-80
2023/08/25 01:18:17;;;;;;;10.05;8.23;;;19.80;99.90;;;;;;4977259;28;20172;-81
2023/08/25 01:20:46;;;;;;;9.55;8.55;;;19.90;99.90;;;;;;4976575;28;20218;-81
2023/08/25 01:23:17;;;;;;;9.13;8.23;;;19.90;99.90;;;;;;4977137;28;20175;-81
2023/08/25 01:25:44;;;;;;;10.10;8.70;;;19.90;99.90;;;;;;4977109;28;20203;-81
2023/08/25 01:28:10;;;;;;;9.65;8.57;;;19.90;99.90;;;;;;4994271;28;20172;-81
2023/08/25 01:30:36;;;;;;;10.90;8.98;;;20.00;99.90;;;;;;4993509;28;20229;-81
2023/08/25 01:33:05;;;;;;;8.70;7.90;;;19.90;99.90;;;;;;4976745;28;20189;-81
2023/08/25 01:35:56;;;;;;;10.23;8.93;;;19.90;99.90;;;;;;4976476;28;20196;-81
2023/08/25 01:38:30;;;;;;;10.15;8.45;;;19.90;99.90;;;;;;4976865;28;20176;-81
2023/08/25 01:41:07;;;;;;;10.15;8.95;;;19.90;99.90;;;;;;4993379;28;20232;-81
2023/08/25 01:43:36;;;;;;;10.23;8.48;;;19.90;99.90;;;;;;4993883;28;20163;-81
2023/08/25 01:46:02;;;;;;;12.05;9.20;;;19.90;99.90;;;;;;4993857;28;20776;-81
2023/08/25 01:48:31;;;;;;;9.93;8.75;;;20.00;99.90;;;;;;4976718;28;20179;-81
2023/08/25 01:50:57;;;;;;;10.35;9.02;;;19.90;99.90;;;;;;4976000;28;20179;-81
2023/08/25 01:53:23;;;;;;;10.10;8.60;;;19.90;99.90;;;;;;4993815;28;20184;-81
2023/08/25 01:55:49;;;;;;;11.63;8.15;;;19.90;99.90;;;;;;4993610;28;20202;-82
2023/08/25 01:58:14;;;;;;;8.43;7.63;;;19.90;99.90;;;;;;4976365;28;20213;-81
2023/08/25 02:00:40;;;;;;;12.05;8.45;;;19.90;99.90;;;;;;4975268;28;20202;-81
2023/08/25 02:03:06;;;;;;;9.93;9.02;;;19.90;99.90;;;;;;4975691;28;20171;-81
2023/08/25 02:05:31;;;;;;;9.57;8.57;;;19.90;99.90;;;;;;4975771;28;20215;-81
2023/08/25 02:07:57;;;;;;;9.63;8.75;;;19.90;99.90;;;;;;4993212;28;20164;-81
2023/08/25 02:10:23;;;;;;;9.40;8.50;;;19.90;99.90;;;;;;4992797;28;20663;-81
2023/08/25 02:12:48;;;;;;;9.48;8.57;;;19.80;99.90;;;;;;4974510;28;20670;-79
2023/08/25 02:15:14;;;;;;;10.00;8.90;;;19.80;99.90;;;;;;5001852;28;20203;-81
2023/08/25 02:17:40;;;;;;;9.45;8.55;;;19.70;99.90;;;;;;4975794;28;20187;-81
2023/08/25 02:20:07;;;;;;;9.50;8.50;;;19.80;99.90;;;;;;4975389;28;20241;-81
2023/08/25 02:22:33;;;;;;;9.65;8.55;;;19.80;99.90;;;;;;5044604;28;20263;-81
2023/08/25 02:24:58;;;;;;;13.13;8.55;;;19.70;99.90;;;;;;5077753;28;20207;-81
2023/08/25 02:27:24;;;;;;;11.73;10.52;;;19.70;99.90;;;;;;5077866;28;20176;-81
2023/08/25 02:29:49;;;;;;;10.57;9.50;;;19.70;99.90;;;;;;5077300;28;20541;-80
2023/08/25 02:32:15;;;;;;;10.68;9.63;;;19.70;99.90;;;;;;5077885;28;20172;-81
2023/08/25 02:34:40;;;;;;;13.88;12.57;;;19.70;99.90;;;;;;5095611;28;20172;-81
2023/08/25 02:37:06;;;;;;;14.68;13.02;;;19.70;99.90;;;;;;5017965;28;20195;-81
2023/08/25 02:39:32;;;;;;;17.23;15.50;;;19.60;99.90;;;;;;5012706;28;20202;-80
2023/08/25 02:41:57;;;;;;;16.58;14.95;;;19.60;99.90;;;;;;5012018;28;20171;-81
2023/08/25 02:44:23;;;;;;;17.40;15.38;;;19.50;99.90;;;;;;4995219;28;20189;-81
2023/08/25 02:46:48;;;;;;;15.95;14.32;;;19.50;99.90;;;;;;4995148;28;20191;-81
2023/08/25 02:49:14;;;;;;;16.85;14.70;;;19.50;99.90;;;;;;5013080;28;20179;-81
2023/08/25 02:51:39;;;;;;;16.27;14.68;;;19.60;99.90;;;;;;4994647;28;20182;-82
2023/08/25 02:54:05;;;;;;;17.70;15.80;;;19.60;99.90;;;;;;4995515;28;20195;-81
2023/08/25 02:56:31;;;;;;;16.77;15.05;;;19.60;99.90;;;;;;4995317;28;20661;-81
2023/08/25 02:58:56;;;;;;;16.35;13.35;;;19.50;99.90;;;;;;4994593;28;20195;-81
2023/08/25 03:01:22;;;;;;;15.68;14.07;;;19.50;99.90;;;;;;5058209;28;20195;-81
2023/08/25 03:03:47;;;;;;;15.48;13.88;;;19.40;99.90;;;;;;5094756;28;20168;-81
2023/08/25 03:06:13;;;;;;;14.65;13.00;;;19.50;99.90;;;;;;5076738;28;20204;-82
2023/08/25 03:08:41;;;;;;;14.20;12.75;;;19.50;99.90;;;;;;5094808;28;20165;-81
2023/08/25 03:11:07;;;;;;;13.25;11.85;;;19.60;99.90;;;;;;5076093;28;20172;-81
2023/08/25 03:13:32;;;;;;;16.27;11.98;;;19.60;99.90;;;;;;5076903;28;20172;-81
2023/08/25 03:16:01;;;;;;;13.52;12.00;;;19.50;99.90;;;;;;5094962;28;20199;-82
2023/08/25 03:18:27;;;;;;;12.85;11.55;;;19.50;99.90;;;;;;5094760;28;20168;-81
2023/08/25 03:20:53;;;;;;;12.77;11.48;;;19.50;99.90;;;;;;5094683;28;20692;-81
2023/08/25 03:23:18;;;;;;;12.95;11.60;;;19.50;99.90;;;;;;5077126;28;20169;-81
2023/08/25 03:25:44;;;;;;;12.40;11.20;;;19.50;99.90;;;;;;5076619;28;20188;-81
2023/08/25 03:28:10;;;;;;;13.02;11.63;;;19.50;99.90;;;;;;5094674;28;20172;-81
2023/08/25 03:30:37;;;;;;;12.32;11.07;;;19.50;99.90;;;;;;5076024;28;20181;-81
2023/08/25 03:33:03;;;;;;;12.07;10.90;;;19.50;99.90;;;;;;5094613;28;20182;-81
2023/08/25 03:35:34;;;;;;;10.88;9.77;;;19.50;99.90;;;;;;5076549;28;20200;-81
2023/08/25 03:37:59;;;;;;;11.18;9.95;;;19.50;99.90;;;;;;5075474;28;20169;-81
2023/08/25 03:40:25;;;;;;;11.90;10.70;;;19.50;99.90;;;;;;5076067;28;20634;-81
2023/08/25 03:42:50;;;;;;;13.80;11.70;;;19.40;99.90;;;;;;5094865;28;20169;-81
2023/08/25 03:45:16;;;;;;;12.40;10.90;;;19.40;99.90;;;;;;5037583;28;20195;-81
2023/08/25 03:47:42;;;;;;;11.23;10.10;;;19.40;99.90;;;;;;5008178;28;20214;-81
2023/08/25 03:50:08;;;;;;;10.57;9.63;;;19.30;99.90;;;;;;5094063;28;20247;-81
2023/08/25 03:52:33;;;;;;;9.98;9.07;;;19.30;99.90;;;;;;5006408;28;20560;-81
2023/08/25 03:54:59;;;;;;;10.82;9.63;;;19.20;99.90;;;;;;4992257;28;20180;-81
2023/08/25 03:57:24;;;;;;;11.90;10.70;;;19.20;99.90;;;;;;4992047;28;20646;-80
2023/08/25 03:59:50;;;;;;;10.77;9.73;;;19.20;99.90;;;;;;4991633;28;20616;-81
2023/08/25 04:02:15;;;;;;;11.43;10.23;;;19.10;99.90;;;;;;4974427;28;20176;-81
2023/08/25 04:04:41;;;;;;;9.57;8.52;;;19.10;99.90;;;;;;4974597;28;20245;-82
2023/08/25 04:07:07;;;;;;;10.35;9.35;;;18.90;99.90;;;;;;4974374;28;20207;-81
2023/08/25 04:09:33;;;;;;;10.48;9.45;;;19.00;99.90;;;;;;4974295;28;20267;-81
2023/08/25 04:11:58;;;;;;;10.27;9.38;;;19.00;99.90;;;;;;4991398;28;20200;-81
2023/08/25 04:14:24;;;;;;;8.48;7.45;;;19.00;99.90;;;;;;4974434;28;20176;-81
2023/08/25 04:16:50;;;;;;;12.07;10.75;;;18.90;99.90;;;;;;4974767;28;20191;-81
2023/08/25 04:19:16;;;;;;;11.60;10.55;;;18.90;99.90;;;;;;4974451;28;20226;-81
2023/08/25 04:21:43;;;;;;;12.20;11.10;;;18.90;99.90;;;;;;4973892;28;20641;-81
2023/08/25 04:24:09;;;;;;;11.70;10.25;;;18.90;99.90;;;;;;4991755;28;20171;-81
2023/08/25 04:26:35;;;;;;;10.73;9.50;;;18.90;99.90;;;;;;4974526;28;20200;-81
2023/08/25 04:29:00;;;;;;;10.00;8.45;;;19.00;99.90;;;;;;4991421;28;20229;-81
2023/08/25 04:31:26;;;;;;;11.68;10.52;;;19.00;99.90;;;;;;4991017;28;20175;-81
2023/08/25 04:33:52;;;;;;;10.55;9.43;;;19.00;99.90;;;;;;4991843;28;20172;-81
2023/08/25 04:36:17;;;;;;;10.55;9.57;;;19.00;99.90;;;;;;4992029;28;20202;-81
2023/08/25 04:38:43;;;;;;;12.98;10.45;;;19.10;99.90;;;;;;4973950;28;20546;-82
2023/08/25 04:41:08;;;;;;;12.77;10.40;;;19.10;99.90;;;;;;4990990;28;20200;-81
2023/08/25 04:43:34;;;;;;;10.70;9.70;;;19.20;99.90;;;;;;4991370;28;20214;-81
2023/08/25 04:45:59;;;;;;;11.27;9.70;;;19.30;99.90;;;;;;4991824;28;20196;-81
2023/08/25 04:48:25;;;;;;;12.77;10.15;;;19.40;99.90;;;;;;4974338;28;20642;-81
2023/08/25 04:50:50;;;;;;;11.65;10.45;;;19.40;99.90;;;;;;4993471;28;20179;-81
2023/08/25 04:53:16;;;;;;;11.90;10.70;;;19.40;99.90;;;;;;4977134;28;20221;-80
2023/08/25 04:55:42;;;;;;;12.13;10.85;;;19.40;99.90;;;;;;4986938;28;20204;-81
2023/08/25 04:58:07;;;;;;;10.90;9.80;;;19.50;99.90;;;;;;4994381;28;20198;-83
2023/08/25 05:00:33;;;;;;;11.82;10.55;;;19.50;99.90;;;;;;4980288;28;20208;-82
2023/08/25 05:02:58;;;;;;;11.75;10.65;;;19.60;99.90;;;;;;4972336;28;20180;-82
2023/08/25 05:05:24;;;;;;;10.73;9.73;;;19.70;99.90;;;;;;4975956;28;20200;-83
2023/08/25 05:07:49;;;;;;;11.52;10.38;;;19.70;99.90;;;;;;4958152;28;20299;-83
2023/08/25 05:10:15;;;;;;;9.00;8.13;;;19.70;99.90;;;;;;4975013;28;20196;-82
2023/08/25 05:12:41;;;;;;;6.65;6.03;;;19.90;99.90;;;;;;4959364;28;20177;-81
2023/08/25 05:15:08;;;;;;;8.60;7.80;;;20.00;99.90;;;;;;4958138;28;20614;-84
2023/08/25 05:17:33;;;;;;;7.38;6.68;;;20.20;99.90;;;;;;4973286;28;20272;-85
2023/08/25 05:19:59;;;;;;;8.30;6.82;;;20.50;99.90;;;;;;4955887;28;20286;-82
2023/08/25 05:22:24;;;;;;;9.90;9.00;;;20.60;99.90;;;;;;4956940;28;20652;-83
2023/08/25 05:24:52;;;;;;;11.52;10.40;;;20.70;99.90;;;;;;4957357;28;20200;-83
2023/08/25 05:27:18;;;;;;;10.98;9.95;;;20.60;99.90;;;;;;4974433;28;20180;-83
2023/08/25 05:29:44;;;;;;;8.18;7.38;;;20.60;99.90;;;;;;4955901;28;20180;-84
2023/08/25 05:32:10;;;;;;;7.95;7.00;;;20.70;99.90;;;;;;4956175;28;20180;-85
2023/08/25 05:34:36;;;;;;;7.70;7.00;;;20.70;99.90;;;;;;4973755;28;20188;-84
2023/08/25 05:37:02;;;;;;;10.18;9.23;;;20.90;99.90;;;;;;4973477;28;20200;-84
2023/08/25 05:39:27;;;;;;;12.27;10.75;;;20.90;99.90;;;;;;4956031;28;20212;-84
2023/08/25 05:41:53;;;;;;;12.00;10.90;;;20.90;99.90;;;;;;4955349;28;20223;-84
2023/08/25 05:44:19;;;;;;;10.90;9.80;;;20.80;99.90;;;;;;4973477;28;20256;-84
2023/08/25 05:46:44;;;;;;;11.18;10.07;;;20.70;99.90;;;;;;4973529;28;20219;-80
2023/08/25 05:49:10;;;;;;;13.68;9.65;;;20.60;99.90;;;;;;4974679;28;20168;-81
2023/08/25 05:51:35;;;;;;;10.10;8.80;;;20.60;99.90;;;;;;4973746;28;20173;-82
2023/08/25 05:54:01;;;;;;;9.02;8.13;;;20.50;99.90;;;;;;4974328;28;20189;-82
2023/08/25 05:56:27;;;;;;;9.23;8.30;;;20.50;99.90;;;;;;4956726;28;20189;-81
2023/08/25 05:58:53;;;;;;;10.55;9.13;;;20.50;99.90;;;;;;4974203;28;20202;-82
2023/08/25 06:01:20;;;;;;;9.52;8.52;;;20.50;99.90;;;;;;4972067;28;20205;-79
2023/08/25 06:03:45;;;;;;;10.82;8.90;;;20.50;99.90;;;;;;4974322;28;20177;-80
2023/08/25 06:06:12;;;;;;;10.63;9.00;;;20.50;99.90;;;;;;4974306;28;20261;-83
2023/08/25 06:08:37;;;;;;;9.60;8.70;;;20.50;99.90;;;;;;4957372;28;20172;-80
2023/08/25 06:11:03;;;;;;;9.77;8.88;;;20.50;99.90;;;;;;4974220;28;20172;-81
2023/08/25 06:13:29;;;;;;;9.68;8.68;;;20.50;99.90;;;;;;4957264;28;20180;-81
2023/08/25 06:15:55;;;;;;;9.57;8.77;;;20.50;99.90;;;;;;4974062;28;20735;-79
2023/08/25 06:18:20;;;;;;;9.88;8.93;;;20.60;99.90;;;;;;4974685;28;20177;-80
2023/08/25 06:20:49;;;;;;;10.07;8.60;;;20.70;99.90;;;;;;4972378;28;20196;-80
2023/08/25 06:23:15;;;;;;;8.68;7.97;;;20.80;99.90;;;;;;4957051;28;20169;-81
2023/08/25 06:25:41;;;;;;;8.57;7.82;;;20.80;99.90;;;;;;4974353;28;20252;-80
2023/08/25 06:28:06;;;;;;;8.70;7.43;;;20.80;99.90;;;;;;4972812;28;20176;-81
2023/08/25 06:30:35;;;;;;;8.13;7.43;;;20.90;99.90;;;;;;4974169;28;20191;-81
2023/08/25 06:33:01;;;;;;;7.57;6.97;;;20.90;99.90;;;;;;4974453;28;20245;-80
2023/08/25 06:35:27;;;;;;;8.77;6.93;;;20.90;99.90;;;;;;4972979;28;20200;-81
2023/08/25 06:37:52;;;;;;;7.50;6.78;;;20.90;99.90;;;;;;4973014;28;20184;-80
2023/08/25 06:40:18;;;;;;;7.68;6.97;;;20.90;99.90;;;;;;4973337;28;20643;-81
2023/08/25 06:42:44;;;;;;;8.02;7.18;;;20.80;99.90;;;;;;4973676;28;20168;-80
2023/08/25 06:45:09;;;;;;;8.05;7.22;;;20.90;99.90;;;;;;4972455;28;20606;-81
2023/08/25 06:47:35;;;;;;;7.55;6.82;;;20.80;99.90;;;;;;4956868;28;20184;-80
2023/08/25 06:50:02;;;;;;;7.70;6.88;;;20.80;99.90;;;;;;4971750;28;20168;-79
2023/08/25 06:52:28;;;;;;;8.00;7.30;;;20.70;99.90;;;;;;4970760;28;20173;-79
2023/08/25 06:54:53;;;;;;;8.50;7.07;;;20.70;99.90;;;;;;4971446;28;20181;-80
2023/08/25 06:57:19;;;;;;;8.80;7.90;;;20.70;99.90;;;;;;4988937;28;20179;-81
2023/08/25 06:59:44;;;;;;;7.32;6.63;;;20.80;99.90;;;;;;4974905;28;20294;-79
2023/08/25 07:02:10;;;;;;;7.00;6.30;;;20.90;99.90;;;;;;4992127;28;20168;-79
2023/08/25 07:04:36;;;;;;;8.18;7.05;;;20.80;99.90;;;;;;4973765;28;20225;-79
2023/08/25 07:07:01;;;;;;;10.57;8.73;;;20.80;99.90;;;;;;4974806;28;20249;-79
2023/08/25 07:09:28;;;;;;;9.52;8.73;;;20.70;99.90;;;;;;4992786;28;20202;-82
2023/08/25 07:11:54;;;;;;;10.23;9.23;;;20.60;99.90;;;;;;4992074;28;20652;-79
2023/08/25 07:14:20;;;;;;;10.25;9.20;;;20.50;99.90;;;;;;4990869;28;20214;-80
2023/08/25 07:16:45;;;;;;;10.18;9.18;;;20.40;99.90;;;;;;4991465;28;20654;-81
2023/08/25 07:19:11;;;;;;;10.35;9.35;;;20.30;99.90;;;;;;4974556;28;20180;-81
2023/08/25 07:21:37;;;;;;;12.18;9.80;;;20.30;99.90;;;;;;4974420;28;20175;-82
2023/08/25 07:24:03;;;;;;;12.98;10.02;;;20.20;99.90;;;;;;4992272;28;20175;-81
2023/08/25 07:26:29;;;;;;;19.98;10.55;;;20.20;99.90;;;;;;4974535;28;20192;-83
2023/08/25 07:28:54;;;;;;;11.65;9.82;;;20.10;99.90;;;;;;5022208;28;20182;-81
2023/08/25 07:31:20;;;;;;;13.10;10.82;;;20.20;99.90;;;;;;4983288;28;20549;-84
2023/08/25 07:33:45;;;;;;;11.32;9.02;;;20.50;99.90;;;;;;4995008;28;20211;-80
2023/08/25 07:36:11;;;;;;;10.70;8.90;;;20.80;99.90;;;;;;4973873;28;20574;-81
2023/08/25 07:38:37;;;;;;;10.68;9.57;;;20.70;99.90;;;;;;4991042;28;20175;-81
2023/08/25 07:41:02;;;;;;;12.13;10.18;;;20.50;99.90;;;;;;4990676;28;20195;-85
2023/08/25 07:43:28;;;;;;;9.90;9.00;;;20.40;99.90;;;;;;4977752;28;20595;-81
2023/08/25 07:45:54;;;;;;;9.30;8.30;;;20.30;99.90;;;;;;4990884;28;20195;-80
2023/08/25 07:48:21;;;;;;;11.02;9.70;;;20.30;99.90;;;;;;4973994;28;20203;-80
2023/08/25 07:50:46;;;;;;;11.93;9.48;;;20.30;99.90;;;;;;4993994;28;20195;-80
2023/08/25 07:53:16;;;;;;;9.93;9.00;;;20.40;99.90;;;;;;4993741;28;20722;-80
2023/08/25 07:55:42;;;;;;;8.73;7.93;;;20.50;99.90;;;;;;4973171;28;20195;-79
2023/08/25 07:58:10;;;;;;;9.13;8.23;;;20.50;99.90;;;;;;4973563;28;20183;-80
2023/08/25 08:00:37;;;;;;;9.40;8.45;;;20.40;99.90;;;;;;4990577;28;20195;-78
2023/08/25 08:03:04;;;;;;;8.90;8.10;;;20.30;99.90;;;;;;4974386;28;20199;-80
2023/08/25 08:05:30;;;;;;;9.07;8.27;;;20.30;99.90;;;;;;4992048;28;20210;-80
2023/08/25 08:07:56;;;;;;;9.07;8.18;;;20.20;99.90;;;;;;4993408;28;20695;-81
2023/08/25 08:10:21;;;;;;;8.65;7.85;;;20.10;99.90;;;;;;4975012;28;20172;-81
2023/08/25 08:12:47;;;;;;;9.23;8.30;;;20.10;99.90;;;;;;4991095;28;20200;-81
2023/08/25 08:15:14;;;;;;;8.43;7.72;;;20.20;99.90;;;;;;5015439;28;20207;-81
2023/08/25 08:17:40;;;;;;;7.50;6.85;;;20.20;99.90;;;;;;4992402;28;20598;-81
2023/08/25 08:20:09;;;;;;;7.35;6.72;;;20.20;99.90;;;;;;4974469;28;20290;-80
2023/08/25 08:22:35;;;;;;;7.32;6.68;;;20.20;99.90;;;;;;4974179;28;20172;-81
2023/08/25 08:25:00;;;;;;;7.40;6.13;;;20.30;99.90;;;;;;4994387;28;20271;-82
2023/08/25 08:27:26;;;;;;;6.75;6.05;;;20.30;99.90;;;;;;4979386;28;20186;-81
2023/08/25 08:29:51;;;;;;;4.88;4.40;;;20.40;99.90;;;;;;4978953;28;20191;-81
2023/08/25 08:32:17;;;;;;;6.22;4.72;;;20.40;99.90;;;;;;4996217;28;20172;-81
2023/08/25 08:34:43;;;;;;;6.32;4.35;;;20.50;99.90;;;;;;4979416;28;20179;-81
2023/08/25 08:37:08;;;;;;;4.80;4.30;;;20.50;99.90;;;;;;4979179;28;20219;-81
2023/08/25 08:39:37;;;;;;;7.50;4.82;;;20.60;99.90;;;;;;4979167;28;20199;-81
2023/08/25 08:42:03;;;;;;;5.00;4.50;;;20.70;99.90;;;;;;4996698;28;20180;-81
2023/08/25 08:44:30;;;;;;;4.75;4.25;;;20.70;99.90;;;;;;4978791;28;20197;-81
2023/08/25 08:46:58;;;;;;;6.15;4.80;;;20.80;99.90;;;;;;4995934;28;20191;-82
2023/08/25 08:49:26;;;;;;;4.90;4.50;;;20.90;99.90;;;;;;4996591;28;20172;-81
2023/08/25 08:51:53;;;;;;;5.15;4.45;;;21.00;99.90;;;;;;4978437;28;20198;-81
2023/08/25 08:54:19;;;;;;;4.25;3.85;;;21.10;99.90;;;;;;4979726;28;20198;-81
2023/08/25 08:56:46;;;;;;;4.55;4.15;;;21.20;99.90;;;;;;4978796;28;20198;-81
2023/08/25 08:59:12;;;;;;;5.18;4.05;;;21.20;99.90;;;;;;4996111;28;20183;-82
2023/08/25 09:01:38;;;;;;;4.97;4.30;;;21.20;99.90;;;;;;4978380;28;20172;-81
2023/08/25 09:04:08;;;;;;;4.93;3.83;;;21.20;99.90;;;;;;4979150;28;20172;-81
2023/08/25 09:06:36;;;;;;;5.88;3.67;;;21.10;99.90;;;;;;4977953;28;20246;-81
2023/08/25 09:09:05;;;;;;;6.13;4.15;;;21.10;99.90;;;;;;4978265;28;20176;-83
2023/08/25 09:11:34;;;;;;;4.13;3.72;;;21.30;99.90;;;;;;4995319;28;20186;-81
2023/08/25 09:14:04;;;;;;;5.93;4.10;;;21.30;99.90;;;;;;4995265;28;20180;-81
2023/08/25 09:16:31;;;;;;;6.10;3.67;;;21.40;99.90;;;;;;4995529;28;20199;-81
2023/08/25 09:19:00;;;;;;;5.35;3.95;;;21.60;99.90;;;;;;4995318;28;20180;-81
2023/08/25 09:21:26;;;;;;;6.43;3.95;;;21.90;99.90;;;;;;4995280;28;20212;-81
2023/08/25 09:24:00;;;;;;;3.88;3.58;;;22.10;99.90;;;;;;4995452;28;20170;-81
2023/08/25 09:26:27;;;;;;;4.18;3.70;;;22.20;99.90;;;;;;4978236;28;20240;-81
2023/08/25 09:28:57;;;;;;;3.92;3.47;;;22.50;99.90;;;;;;4995663;28;20186;-83
2023/08/25 09:31:25;;;;;;;4.10;3.70;;;22.70;99.90;;;;;;4995159;28;20214;-81
2023/08/25 09:33:57;;;;;;;5.15;3.55;;;23.00;99.90;;;;;;4995349;28;20180;-81
2023/08/25 09:36:23;;;;;;;4.15;3.40;;;23.00;99.90;;;;;;4976062;28;20195;-83
2023/08/25 09:38:49;;;;;;;3.65;3.35;;;23.10;99.90;;;;;;4993704;28;20171;-79
2023/08/25 09:41:23;;;;;;;5.35;3.85;;;23.20;99.90;;;;;;4992175;28;20242;-80
2023/08/25 09:43:50;;;;;;;6.15;3.80;;;23.30;99.90;;;;;;4975832;28;20259;-81
2023/08/25 09:46:15;;;;;;;3.28;2.97;;;23.50;99.90;;;;;;4992357;28;20675;-84
2023/08/25 09:48:44;;;;;;;4.43;3.38;;;23.70;10.60;;;;;;4974694;28;20167;-82
2023/08/25 09:51:10;;;;;;;6.00;3.47;;;23.70;68.40;;;;;;4974180;28;20294;-85
2023/08/25 09:53:38;;;;;;;3.53;3.22;;;23.70;74.20;;;;;;4992657;28;20179;-84
2023/08/25 09:56:07;;;;;;;4.10;2.92;;;23.30;1.00;;;;;;4974801;28;20278;-83
2023/08/25 09:58:37;;;;;;;3.53;3.20;;;23.20;99.90;;;;;;4991962;28;20175;-83
2023/08/25 10:01:04;;;;;;;3.40;3.10;;;23.30;69.70;;;;;;4991294;28;20200;-84
2023/08/25 10:03:30;;;;;;;3.10;2.90;;;23.30;99.90;;;;;;4974478;28;20196;-83
2023/08/25 10:05:56;;;;;;;4.85;3.15;;;23.20;99.90;;;;;;4992473;28;20208;-79
2023/08/25 10:08:23;;;;;;;4.28;2.90;;;23.20;99.90;;;;;;4993991;28;20262;-79
2023/08/25 10:10:48;;;;;;;3.35;3.00;;;23.40;2.30;;;;;;4976055;28;20664;-82
2023/08/25 10:13:18;;;;;;;3.15;2.42;;;23.50;40.20;;;;;;4974670;28;20176;-79
2023/08/25 10:15:45;;;;;;;3.03;2.50;;;23.70;1.00;;;;;;4992239;28;20222;-79
2023/08/25 10:18:12;;;;;;;3.03;2.70;;;23.90;1.00;;;;;;4974564;28;20205;-80
2023/08/25 10:20:39;;;;;;;3.25;2.88;;;23.90;1.00;;;;;;4974166;28;20245;-79
2023/08/25 10:23:05;;;;;;;4.82;3.08;;;23.90;1.00;;;;;;4991678;28;20172;-79
2023/08/25 10:25:31;;;;;;;3.00;2.70;;;24.10;1.00;;;;;;4991776;28;20300;-79
2023/08/25 10:27:59;;;;;;;3.03;2.72;;;24.30;1.00;;;;;;4974176;28;20172;-81
2023/08/25 10:30:26;;;;;;;3.38;2.50;;;24.30;1.00;;;;;;4991370;28;20551;-79
2023/08/25 10:33:05;;;;;;;3.13;2.33;;;24.40;99.90;;;;;;4992962;28;20191;-80
2023/08/25 10:35:38;;;;;;;4.80;2.40;;;24.40;99.90;;;;;;4973928;28;20191;-79
2023/08/25 10:38:04;;;;;;;2.72;1.98;;;24.30;1.00;;;;;;4982567;28;20191;-81
2023/08/25 10:40:41;;;;;;;3.85;2.78;;;24.20;1.00;;;;;;4990478;28;20203;-82
2023/08/25 10:43:06;;;;;;;3.03;2.50;;;24.30;99.90;;;;;;4973999;28;20175;-79
2023/08/25 10:45:36;;;;;;;3.20;2.88;;;24.30;99.90;;;;;;4991303;28;20191;-79
2023/08/25 10:48:01;;;;;;;2.55;2.35;;;24.30;99.90;;;;;;4990975;28;20167;-79
2023/08/25 10:50:27;;;;;;;5.32;2.60;;;24.20;99.90;;;;;;4973296;28;20190;-78
2023/08/25 10:52:54;;;;;;;2.72;2.42;;;24.20;99.90;;;;;;4973789;28;20931;-79
2023/08/25 10:55:25;;;;;;;3.58;2.60;;;24.20;99.90;;;;;;4991330;28;20697;-79
2023/08/25 10:57:51;;;;;;;4.78;2.67;;;24.10;99.90;;;;;;4973682;28;20179;-80
2023/08/25 11:00:31;;;;;;;2.47;2.20;;;24.10;1.00;;;;;;4973148;28;20202;-80
2023/08/25 11:02:57;;;;;;;3.15;2.35;;;24.10;1.00;;;;;;4973710;28;20176;-81
2023/08/25 11:05:30;;;;;;;3.35;2.65;;;23.90;1.00;;;;;;4991872;28;20229;-79
2023/08/25 11:07:57;;;;;;;2.80;2.33;;;23.90;1.00;;;;;;5029201;28;20168;-79
2023/08/25 11:10:23;;;;;;;5.07;4.15;;;23.90;1.00;;;;;;4973073;28;20186;-79
2023/08/25 11:12:53;;;;;;;3.83;3.30;;;24.00;1.00;;;;;;4990652;28;20752;-79
2023/08/25 11:15:21;;;;;;;3.38;2.42;;;24.10;1.00;;;;;;4973278;28;20199;-79
2023/08/25 11:17:50;;;;;;;3.67;2.40;;;24.10;1.00;;;;;;4973401;28;20183;-79
2023/08/25 11:20:16;;;;;;;3.83;2.40;;;24.20;1.00;;;;;;4972860;28;20196;-80
2023/08/25 11:22:59;;;;;;;4.65;2.15;;;24.30;1.00;;;;;;4973466;28;20168;-79
2023/08/25 11:25:27;;;;;;;4.25;2.70;;;24.40;1.00;;;;;;4990585;28;20199;-79
2023/08/25 11:27:52;;;;;;;4.00;2.30;;;24.60;1.00;;;;;;4973380;28;20610;-79
2023/08/25 11:30:19;;;;;;;3.42;2.35;;;24.70;99.90;;;;;;4972554;28;20639;-80
2023/08/25 11:32:45;;;;;;;6.05;2.60;;;24.80;1.00;;;;;;4973034;28;20655;-79
2023/08/25 11:35:12;;;;;;;2.22;2.00;;;24.90;99.90;;;;;;4972982;28;20200;-79
2023/08/25 11:37:39;;;;;;;3.60;2.35;;;25.00;1.00;;;;;;4973350;28;20249;-79
2023/08/25 11:40:06;;;;;;;3.42;2.50;;;25.00;1.00;;;;;;4972215;28;20204;-80
2023/08/25 11:42:31;;;;;;;5.22;4.72;;;25.30;1.00;;;;;;4972894;28;20178;-79
2023/08/25 11:44:57;;;;;;;3.03;2.40;;;25.40;99.90;;;;;;4990048;28;20255;-79
2023/08/25 11:47:22;;;;;;;2.58;2.28;;;25.50;1.00;;;;;;4990511;28;20265;-80
2023/08/25 11:49:50;;;;;;;2.58;2.38;;;25.60;1.00;;;;;;4972625;28;20176;-79
2023/08/25 11:52:17;;;;;;;2.58;2.38;;;25.70;1.00;;;;;;4972816;28;20176;-79
2023/08/25 11:54:49;;;;;;;2.40;1.98;;;25.80;1.00;;;;;;4990228;28;20174;-79
2023/08/25 11:57:15;;;;;;;3.40;2.20;;;26.00;1.00;;;;;;4972848;28;20200;-80
2023/08/25 11:59:41;;;;;;;4.18;2.50;;;26.20;99.90;;;;;;4971491;28;20277;-79
2023/08/25 12:02:07;;;;;;;2.45;2.25;;;26.10;99.90;;;;;;4990198;28;20639;-81
2023/08/25 12:04:33;;;;;;;2.95;2.22;;;26.00;1.00;;;;;;4973231;28;20199;-79
2023/08/25 12:07:01;;;;;;;3.53;2.17;;;26.00;99.90;;;;;;4972828;28;20211;-79
2023/08/25 12:09:27;;;;;;;2.80;2.10;;;25.90;1.00;;;;;;4972752;28;20239;-79
2023/08/25 12:11:56;;;;;;;3.63;2.30;;;25.90;99.90;;;;;;4989537;28;20206;-79
2023/08/25 12:14:29;;;;;;;3.08;2.30;;;25.90;1.00;;;;;;4990013;28;20175;-81
2023/08/25 12:16:55;;;;;;;4.40;2.45;;;25.90;1.00;;;;;;4972559;28;20620;-79
2023/08/25 12:19:26;;;;;;;2.83;2.38;;;25.90;1.00;;;;;;4972834;28;20255;-79
2023/08/25 12:21:56;;;;;;;2.53;2.20;;;25.90;99.90;;;;;;4989513;28;20183;-79
2023/08/25 12:24:22;;;;;;;2.72;2.50;;;25.90;1.00;;;;;;4990195;28;20178;-79
2023/08/25 12:26:48;;;;;;;3.20;2.20;;;25.90;99.90;;;;;;4972715;28;20192;-79
2023/08/25 12:29:14;;;;;;;4.65;2.28;;;26.10;1.00;;;;;;4972701;28;20216;-80
2023/08/25 12:31:40;;;;;;;2.83;2.17;;;26.10;1.00;;;;;;4989586;28;20217;-80
2023/08/25 12:34:05;;;;;;;3.65;2.28;;;26.20;1.00;;;;;;4990018;28;20210;-80
2023/08/25 12:36:31;;;;;;;3.20;2.42;;;26.20;1.00;;;;;;4972430;28;20192;-80
2023/08/25 12:38:57;;;;;;;2.55;2.17;;;26.30;1.00;;;;;;4989836;28;20190;-80
2023/08/25 12:41:22;;;;;;;2.50;2.30;;;26.30;1.00;;;;;;4989333;28;20200;-80